createdAt,value
2017-10-27T00:01:43.075Z,12.80
2017-10-27T00:04:11.314Z,12.80
2017-10-27T00:06:38.795Z,12.80
2017-10-27T00:09:07.030Z,12.80
2017-10-27T00:11:34.515Z,12.70
2017-10-27T00:14:01.995Z,12.70
2017-10-27T00:16:30.227Z,12.70
2017-10-27T00:18:57.707Z,12.70
2017-10-27T00:21:25.175Z,12.70
2017-10-27T00:23:53.407Z,12.60
2017-10-27T00:26:20.889Z,12.60
2017-10-27T00:28:48.367Z,12.60
2017-10-27T00:31:16.599Z,12.60
2017-10-27T00:33:44.074Z,12.60
2017-10-27T00:36:12.319Z,12.70
2017-10-27T00:38:39.786Z,12.70
2017-10-27T00:41:07.259Z,12.70
2017-10-27T00:43:34.723Z,12.70
2017-10-27T00:46:02.211Z,12.70
2017-10-27T00:48:30.452Z,12.70
2017-10-27T00:50:57.906Z,12.60
2017-10-27T00:53:26.156Z,12.70
2017-10-27T00:55:53.636Z,12.70
2017-10-27T00:58:21.091Z,12.70
2017-10-27T01:00:48.572Z,12.70
2017-10-27T01:03:16.806Z,12.60
2017-10-27T01:05:44.286Z,12.60
2017-10-27T01:08:12.515Z,12.60
2017-10-27T01:10:40.004Z,12.60
2017-10-27T01:13:07.460Z,12.60
2017-10-27T01:15:34.919Z,12.60
2017-10-27T01:18:02.415Z,12.60
2017-10-27T01:20:30.659Z,12.60
2017-10-27T01:22:58.153Z,12.60
2017-10-27T01:25:26.376Z,12.50
2017-10-27T01:27:53.835Z,12.50
2017-10-27T01:30:21.312Z,12.60
2017-10-27T01:32:48.799Z,12.50
2017-10-27T01:35:16.282Z,12.50
2017-10-27T01:37:43.739Z,12.50
2017-10-27T01:40:11.204Z,12.50
2017-10-27T01:42:38.686Z,12.50
2017-10-27T01:45:06.147Z,12.50
2017-10-27T01:47:33.611Z,12.40
2017-10-27T01:50:01.102Z,12.40
2017-10-27T01:52:29.343Z,12.40
2017-10-27T01:54:56.823Z,12.40
2017-10-27T01:57:25.047Z,12.40
2017-10-27T01:59:52.519Z,12.40
2017-10-27T02:02:19.998Z,12.40
2017-10-27T02:04:48.251Z,12.40
2017-10-27T02:07:15.726Z,12.40
2017-10-27T02:09:43.195Z,12.40
2017-10-27T02:12:11.433Z,12.40
2017-10-27T02:14:38.901Z,12.40
2017-10-27T02:17:06.379Z,12.40
2017-10-27T02:19:34.629Z,12.40
2017-10-27T02:22:02.090Z,12.30
2017-10-27T02:24:29.580Z,12.40
2017-10-27T02:26:57.794Z,12.40
2017-10-27T02:29:25.264Z,12.40
2017-10-27T02:31:52.748Z,12.40
2017-10-27T02:34:20.972Z,12.40
2017-10-27T02:36:48.458Z,12.40
2017-10-27T02:39:15.920Z,12.30
2017-10-27T02:41:44.153Z,12.30
2017-10-27T02:44:11.637Z,12.20
2017-10-27T02:46:39.096Z,12.30
2017-10-27T02:49:06.576Z,12.30
2017-10-27T02:51:34.040Z,12.30
2017-10-27T02:54:02.286Z,12.30
2017-10-27T02:56:29.751Z,12.30
2017-10-27T02:58:57.217Z,12.20
2017-10-27T03:01:26.201Z,12.20
2017-10-27T03:03:53.670Z,12.20
2017-10-27T03:06:21.918Z,12.20
2017-10-27T03:08:49.384Z,12.20
2017-10-27T03:11:16.867Z,12.20
2017-10-27T03:13:45.092Z,12.20
2017-10-27T03:16:12.571Z,12.20
2017-10-27T03:18:40.041Z,12.20
2017-10-27T03:21:07.519Z,12.20
2017-10-27T03:23:35.746Z,12.20
2017-10-27T03:26:03.207Z,12.10
2017-10-27T03:28:30.690Z,12.20
2017-10-27T03:30:58.919Z,12.10
2017-10-27T03:33:26.389Z,12.10
2017-10-27T03:35:53.856Z,12.10
2017-10-27T03:38:21.330Z,12.10
2017-10-27T03:40:49.572Z,12.10
2017-10-27T03:43:17.036Z,12.10
2017-10-27T03:45:44.519Z,12.10
2017-10-27T03:48:11.982Z,12.10
2017-10-27T03:50:40.225Z,12.10
2017-10-27T03:53:07.708Z,12.10
2017-10-27T03:55:35.934Z,12.10
2017-10-27T03:58:03.740Z,12.10
2017-10-27T04:00:31.202Z,12.10
2017-10-27T04:02:58.663Z,12.00
2017-10-27T04:05:26.915Z,12.00
2017-10-27T04:07:54.387Z,12.00
2017-10-27T04:10:22.651Z,11.90
2017-10-27T04:12:50.123Z,11.80
2017-10-27T04:15:17.984Z,11.80
2017-10-27T04:17:45.443Z,11.70
2017-10-27T04:20:13.671Z,11.60
2017-10-27T04:22:41.153Z,11.60
2017-10-27T04:25:08.615Z,11.50
2017-10-27T04:27:36.108Z,11.50
2017-10-27T04:30:04.336Z,11.40
2017-10-27T04:32:31.808Z,11.30
2017-10-27T04:34:59.287Z,11.40
2017-10-27T04:37:27.523Z,11.30
2017-10-27T04:39:55.007Z,11.30
2017-10-27T04:42:22.454Z,11.20
2017-10-27T04:44:49.942Z,11.20
2017-10-27T04:47:18.174Z,11.20
2017-10-27T04:49:45.643Z,11.20
2017-10-27T04:52:13.107Z,11.20
2017-10-27T04:54:41.361Z,11.20
2017-10-27T04:57:08.818Z,11.20
2017-10-27T04:59:36.294Z,11.20
2017-10-27T05:02:04.543Z,11.10
2017-10-27T05:04:32.019Z,11.10
2017-10-27T05:06:59.484Z,11.10
2017-10-27T05:09:27.723Z,11.10
2017-10-27T05:11:55.198Z,11.10
2017-10-27T05:14:22.684Z,11.20
2017-10-27T05:16:56.687Z,11.20
2017-10-27T05:19:31.496Z,11.20
2017-10-27T05:22:04.775Z,11.20
2017-10-27T05:24:32.556Z,11.20
2017-10-27T05:27:00.016Z,11.20
2017-10-27T05:29:27.480Z,11.20
2017-10-27T05:31:55.739Z,11.20
2017-10-27T05:34:23.204Z,11.20
2017-10-27T05:36:50.689Z,11.20
2017-10-27T05:39:18.929Z,11.20
2017-10-27T05:41:46.412Z,11.20
2017-10-27T05:44:14.643Z,11.20
2017-10-27T05:46:42.123Z,11.20
2017-10-27T05:49:10.354Z,11.30
2017-10-27T05:51:37.835Z,11.20
2017-10-27T05:54:05.322Z,11.30
2017-10-27T05:56:33.566Z,11.30
2017-10-27T05:59:01.048Z,11.20
2017-10-27T06:01:29.275Z,11.20
2017-10-27T06:03:56.747Z,11.20
2017-10-27T06:06:24.219Z,11.10
2017-10-27T06:08:51.683Z,11.00
2017-10-27T06:11:19.937Z,10.90
2017-10-27T06:13:47.399Z,10.90
2017-10-27T06:16:14.921Z,10.90
2017-10-27T06:18:42.391Z,10.80
2017-10-27T06:21:09.861Z,10.70
2017-10-27T06:23:37.652Z,10.70
2017-10-27T06:26:05.116Z,10.70
2017-10-27T06:28:33.347Z,10.80
2017-10-27T06:31:00.839Z,10.80
2017-10-27T06:33:28.456Z,10.90
2017-10-27T06:35:55.919Z,10.90
2017-10-27T06:38:23.376Z,11.00
2017-10-27T06:40:50.855Z,11.00
2017-10-27T06:43:18.324Z,11.10
2017-10-27T06:45:47.334Z,11.10
2017-10-27T06:48:15.555Z,11.20
2017-10-27T06:50:43.014Z,11.10
2017-10-27T06:53:10.491Z,11.10
2017-10-27T06:55:37.950Z,11.00
2017-10-27T06:58:05.418Z,11.10
2017-10-27T07:00:32.884Z,11.20
2017-10-27T07:03:00.339Z,11.20
2017-10-27T07:05:28.582Z,11.30
2017-10-27T07:07:56.043Z,11.20
2017-10-27T07:10:23.507Z,11.20
2017-10-27T07:12:52.560Z,11.00
2017-10-27T07:15:20.020Z,11.10
2017-10-27T07:17:47.495Z,11.00
2017-10-27T07:20:14.959Z,11.00
2017-10-27T07:22:42.423Z,11.10
2017-10-27T07:25:09.914Z,11.20
2017-10-27T07:27:38.138Z,11.40
2017-10-27T07:30:05.628Z,11.40
2017-10-27T07:32:33.082Z,11.50
2017-10-27T07:35:00.569Z,11.70
2017-10-27T07:37:28.027Z,12.00
2017-10-27T07:39:55.496Z,12.30
2017-10-27T07:42:22.971Z,12.30
2017-10-27T07:44:50.443Z,12.20
2017-10-27T07:47:17.899Z,12.20
2017-10-27T07:49:45.389Z,12.10
2017-10-27T07:52:13.615Z,12.10
2017-10-27T07:54:41.092Z,12.10
2017-10-27T07:57:08.551Z,12.10
2017-10-27T07:59:36.032Z,12.20
2017-10-27T08:02:04.259Z,12.70
2017-10-27T08:04:31.723Z,12.70
2017-10-27T08:06:59.192Z,13.10
2017-10-27T08:09:26.664Z,13.20
2017-10-27T08:11:54.125Z,13.00
2017-10-27T08:14:21.600Z,12.80
2017-10-27T08:16:49.839Z,12.50
2017-10-27T08:19:17.304Z,12.40
2017-10-27T08:21:44.779Z,12.50
2017-10-27T08:24:12.999Z,12.60
2017-10-27T08:26:40.491Z,12.60
2017-10-27T08:29:07.959Z,12.70
2017-10-27T08:31:35.427Z,13.00
2017-10-27T08:34:03.663Z,13.30
2017-10-27T08:36:31.145Z,13.30
2017-10-27T08:38:58.621Z,13.30
2017-10-27T08:41:26.097Z,13.20
2017-10-27T08:43:53.567Z,13.10
2017-10-27T08:46:21.053Z,13.20
2017-10-27T08:48:48.523Z,13.20
2017-10-27T08:51:15.999Z,13.20
2017-10-27T08:53:44.223Z,13.50
2017-10-27T08:56:11.716Z,13.40
2017-10-27T08:58:39.967Z,14.00
2017-10-27T09:01:07.459Z,13.90
2017-10-27T09:03:35.700Z,13.80
2017-10-27T09:06:03.155Z,13.80
2017-10-27T09:08:30.619Z,13.80
2017-10-27T09:10:58.095Z,13.70
2017-10-27T09:13:26.331Z,13.90
2017-10-27T09:15:53.797Z,13.90
2017-10-27T09:18:21.264Z,14.10
2017-10-27T09:20:48.744Z,14.10
2017-10-27T09:23:16.996Z,14.20
2017-10-27T09:25:44.512Z,14.20
2017-10-27T09:28:11.985Z,14.50
2017-10-27T09:30:39.462Z,14.90
2017-10-27T09:33:06.925Z,15.70
2017-10-27T09:35:34.547Z,16.30
2017-10-27T09:38:02.017Z,16.20
2017-10-27T09:40:29.511Z,17.20
2017-10-27T09:42:57.753Z,17.80
2017-10-27T09:45:25.224Z,17.80
2017-10-27T09:47:52.688Z,17.90
2017-10-27T09:50:20.163Z,18.60
2017-10-27T09:52:48.411Z,18.30
2017-10-27T09:55:15.875Z,18.30
2017-10-27T09:57:43.376Z,19.40
2017-10-27T10:00:10.841Z,20.40
2017-10-27T10:02:38.283Z,20.90
2017-10-27T10:05:05.764Z,20.40
2017-10-27T10:07:33.219Z,19.40
2017-10-27T10:10:00.691Z,19.60
2017-10-27T10:12:28.155Z,19.70
2017-10-27T10:14:55.623Z,20.30
2017-10-27T10:17:23.111Z,20.90
2017-10-27T10:19:51.331Z,21.50
2017-10-27T10:22:18.810Z,21.40
2017-10-27T10:24:46.275Z,22.80
2017-10-27T10:27:13.751Z,21.80
2017-10-27T10:29:41.967Z,18.40
2017-10-27T10:32:09.441Z,18.40
2017-10-27T10:34:36.910Z,18.40
2017-10-27T10:37:04.416Z,18.30
2017-10-27T10:39:31.878Z,17.50
2017-10-27T10:41:59.335Z,17.90
2017-10-27T10:44:26.803Z,17.20
2017-10-27T10:46:54.263Z,16.50
2017-10-27T10:49:21.735Z,18.20
2017-10-27T10:51:49.227Z,18.50
2017-10-27T10:54:16.693Z,18.60
2017-10-27T10:56:44.920Z,18.40
2017-10-27T10:59:12.405Z,18.40
2017-10-27T11:01:39.863Z,17.20
2017-10-27T11:04:07.349Z,16.20
2017-10-27T11:06:35.587Z,15.60
2017-10-27T11:09:03.072Z,15.60
2017-10-27T11:11:31.331Z,14.70
2017-10-27T11:13:59.572Z,14.80
2017-10-27T11:16:27.038Z,14.80
2017-10-27T11:18:56.235Z,15.30
2017-10-27T11:21:23.682Z,16.70
2017-10-27T11:23:51.151Z,18.00
2017-10-27T11:26:18.619Z,19.00
2017-10-27T11:28:46.091Z,20.00
2017-10-27T11:31:14.326Z,20.30
2017-10-27T11:33:41.783Z,20.30
2017-10-27T11:36:09.251Z,20.10
2017-10-27T11:38:36.717Z,19.70
2017-10-27T11:41:04.196Z,20.00
2017-10-27T11:43:32.424Z,19.80
2017-10-27T11:45:59.912Z,19.80
2017-10-27T11:48:27.374Z,19.50
2017-10-27T11:50:54.818Z,18.80
2017-10-27T11:53:22.290Z,19.50
2017-10-27T11:55:50.527Z,19.50
2017-10-27T11:58:17.975Z,19.50
2017-10-27T12:00:45.450Z,19.80
2017-10-27T12:03:12.918Z,20.70
2017-10-27T12:05:40.384Z,20.60
2017-10-27T12:08:07.855Z,20.40
2017-10-27T12:10:36.099Z,18.50
2017-10-27T12:13:03.585Z,18.50
2017-10-27T12:15:31.069Z,19.10
2017-10-27T12:17:58.544Z,19.00
2017-10-27T12:20:26.044Z,18.70
2017-10-27T12:22:53.517Z,18.10
2017-10-27T12:25:21.767Z,17.10
2017-10-27T12:27:49.260Z,17.10
2017-10-27T12:30:17.483Z,18.70
2017-10-27T12:32:44.930Z,18.70
2017-10-27T12:35:12.424Z,18.80
2017-10-27T12:37:40.652Z,18.80
2017-10-27T12:40:08.110Z,18.80
2017-10-27T12:42:35.591Z,19.50
2017-10-27T12:45:03.080Z,20.00
2017-10-27T12:47:31.308Z,19.30
2017-10-27T12:49:58.780Z,19.30
2017-10-27T12:52:26.247Z,18.30
2017-10-27T12:54:55.232Z,17.10
2017-10-27T12:57:22.704Z,17.10
2017-10-27T12:59:50.922Z,16.60
2017-10-27T13:02:18.382Z,16.60
2017-10-27T13:04:45.842Z,17.40
2017-10-27T13:07:13.311Z,18.40
2017-10-27T13:09:40.787Z,18.50
2017-10-27T13:12:09.032Z,18.80
2017-10-27T13:14:36.484Z,18.80
2017-10-27T13:17:03.995Z,18.90
2017-10-27T13:19:32.232Z,19.10
2017-10-27T13:21:59.710Z,19.10
2017-10-27T13:24:27.175Z,19.00
2017-10-27T13:26:54.639Z,19.10
2017-10-27T13:29:22.891Z,18.60
2017-10-27T13:31:50.378Z,18.50
2017-10-27T13:34:18.604Z,17.50
2017-10-27T13:36:46.088Z,17.40
2017-10-27T13:39:14.327Z,17.00
2017-10-27T13:41:41.804Z,16.90
2017-10-27T13:44:09.276Z,16.60
2017-10-27T13:46:36.755Z,16.40
2017-10-27T13:49:05.013Z,15.70
2017-10-27T13:51:33.987Z,15.20
2017-10-27T13:54:01.430Z,15.20
2017-10-27T13:56:28.911Z,14.90
2017-10-27T13:58:56.383Z,14.60
2017-10-27T14:01:24.638Z,14.10
2017-10-27T14:03:52.099Z,14.10
2017-10-27T14:06:19.556Z,14.00
2017-10-27T14:08:47.031Z,13.90
2017-10-27T14:11:15.269Z,13.70
2017-10-27T14:13:42.737Z,13.80
2017-10-27T14:16:10.221Z,13.70
2017-10-27T14:18:38.463Z,13.70
2017-10-27T14:21:06.352Z,13.70
2017-10-27T14:23:33.794Z,13.70
2017-10-27T14:26:02.766Z,13.80
2017-10-27T14:28:30.261Z,13.80
2017-10-27T14:30:58.977Z,13.70
2017-10-27T14:33:26.491Z,13.70
2017-10-27T14:35:53.946Z,13.80
2017-10-27T14:38:22.937Z,14.10
2017-10-27T14:40:50.419Z,14.10
2017-10-27T14:43:18.681Z,14.40
2017-10-27T14:45:46.916Z,14.60
2017-10-27T14:48:14.383Z,14.70
2017-10-27T14:50:41.855Z,14.90
2017-10-27T14:53:09.312Z,15.00
2017-10-27T14:55:36.783Z,15.00
2017-10-27T14:58:05.003Z,15.00
2017-10-27T15:00:32.491Z,14.90
2017-10-27T15:02:59.947Z,14.90
2017-10-27T15:05:27.408Z,14.80
2017-10-27T15:07:54.889Z,14.60
2017-10-27T15:10:23.137Z,14.50
2017-10-27T15:12:50.602Z,14.50
2017-10-27T15:15:18.097Z,14.40
2017-10-27T15:17:45.550Z,14.50
2017-10-27T15:20:13.027Z,14.50
2017-10-27T15:22:40.506Z,14.60
2017-10-27T15:25:07.962Z,14.50
2017-10-27T15:27:35.443Z,14.40
2017-10-27T15:30:02.911Z,14.30
2017-10-27T15:32:31.159Z,14.00
2017-10-27T15:34:58.617Z,14.00
2017-10-27T15:37:26.085Z,13.80
2017-10-27T15:39:53.560Z,13.70
2017-10-27T15:42:21.786Z,13.60
2017-10-27T15:44:49.266Z,13.60
2017-10-27T15:47:16.735Z,13.60
2017-10-27T15:49:44.974Z,13.40
2017-10-27T15:52:12.435Z,13.40
2017-10-27T15:54:39.911Z,13.30
2017-10-27T15:57:07.376Z,13.20
2017-10-27T15:59:34.831Z,13.20
2017-10-27T16:02:02.316Z,13.30
2017-10-27T16:04:30.615Z,13.30
2017-10-27T16:06:58.087Z,13.30
2017-10-27T16:09:25.552Z,13.30
2017-10-27T16:11:53.043Z,13.20
2017-10-27T16:14:21.266Z,13.10
2017-10-27T16:16:48.719Z,13.10
2017-10-27T16:19:16.194Z,13.10
2017-10-27T16:21:43.650Z,12.90
2017-10-27T16:24:11.145Z,12.80
2017-10-27T16:26:38.619Z,12.70
2017-10-27T16:29:06.843Z,12.40
2017-10-27T16:31:34.315Z,12.40
2017-10-27T16:34:01.780Z,12.30
2017-10-27T16:36:29.238Z,12.20
2017-10-27T16:38:57.483Z,12.00
2017-10-27T16:41:24.944Z,12.00
2017-10-27T16:43:52.420Z,11.90
2017-10-27T16:46:19.870Z,11.80
2017-10-27T16:48:47.359Z,11.70
2017-10-27T16:51:15.583Z,11.60
2017-10-27T16:53:43.076Z,11.60
2017-10-27T16:56:11.331Z,11.50
2017-10-27T16:58:38.792Z,11.50
2017-10-27T17:01:06.258Z,11.50
2017-10-27T17:03:33.747Z,11.50
2017-10-27T17:06:01.218Z,11.40
2017-10-27T17:08:28.700Z,11.30
2017-10-27T17:10:56.191Z,11.20
2017-10-27T17:13:23.652Z,11.10
2017-10-27T17:15:51.132Z,11.00
2017-10-27T17:18:18.603Z,10.90
2017-10-27T17:20:46.083Z,10.80
2017-10-27T17:23:13.571Z,10.70
2017-10-27T17:25:41.055Z,10.70
2017-10-27T17:28:08.530Z,10.60
2017-10-27T17:30:35.987Z,10.60
2017-10-27T17:33:03.469Z,10.60
2017-10-27T17:35:30.930Z,10.50
2017-10-27T17:37:58.419Z,10.50
2017-10-27T17:40:26.660Z,10.30
2017-10-27T17:42:54.135Z,10.30
2017-10-27T17:45:21.615Z,10.20
2017-10-27T17:47:49.852Z,10.00
2017-10-27T17:50:17.336Z,10.00
2017-10-27T17:52:45.568Z,9.80
2017-10-27T17:55:13.031Z,9.80
2017-10-27T17:57:40.492Z,9.70
2017-10-27T18:00:07.952Z,9.50
2017-10-27T18:02:35.465Z,9.50
2017-10-27T18:05:03.689Z,9.60
2017-10-27T18:07:31.147Z,9.60
2017-10-27T18:09:58.631Z,9.70
2017-10-27T18:12:26.870Z,10.00
2017-10-27T18:14:55.102Z,10.10
2017-10-27T18:17:22.564Z,10.00
2017-10-27T18:19:50.052Z,10.20
2017-10-27T18:22:17.538Z,10.30
2017-10-27T18:24:45.795Z,10.50
2017-10-27T18:27:13.251Z,10.50
2017-10-27T18:29:40.723Z,10.60
2017-10-27T18:32:08.187Z,10.60
2017-10-27T18:34:36.419Z,10.80
2017-10-27T18:37:03.899Z,10.80
2017-10-27T18:39:31.371Z,10.90
2017-10-27T18:41:59.633Z,10.90
2017-10-27T18:44:27.116Z,10.90
2017-10-27T18:46:55.545Z,11.00
2017-10-27T18:49:23.007Z,11.00
2017-10-27T18:51:50.504Z,11.00
2017-10-27T18:54:18.742Z,11.10
2017-10-27T18:56:46.212Z,11.00
2017-10-27T18:59:13.680Z,11.00
2017-10-27T19:01:41.155Z,11.00
2017-10-27T19:04:09.387Z,10.90
2017-10-27T19:06:36.855Z,10.90
2017-10-27T19:09:04.334Z,10.90
2017-10-27T19:11:32.568Z,10.90
2017-10-27T19:14:00.045Z,10.90
2017-10-27T19:16:27.524Z,10.90
2017-10-27T19:18:55.755Z,10.90
2017-10-27T19:21:23.245Z,10.90
2017-10-27T19:23:50.741Z,10.90
2017-10-27T19:26:18.195Z,11.00
2017-10-27T19:28:45.699Z,11.00
2017-10-27T19:31:13.167Z,10.90
2017-10-27T19:33:40.648Z,10.90
2017-10-27T19:36:08.107Z,10.90
2017-10-27T19:38:35.685Z,10.90
2017-10-27T19:41:03.131Z,10.90
2017-10-27T19:43:30.603Z,10.90
2017-10-27T19:45:58.099Z,10.90
2017-10-27T19:48:26.330Z,10.80
2017-10-27T19:50:53.797Z,10.80
2017-10-27T19:53:21.281Z,10.80
2017-10-27T19:55:48.726Z,10.80
2017-10-27T19:58:16.207Z,10.70
2017-10-27T20:00:43.695Z,10.60
2017-10-27T20:03:11.182Z,10.60
2017-10-27T20:05:38.657Z,10.60
2017-10-27T20:08:06.127Z,10.50
2017-10-27T20:10:33.623Z,10.60
2017-10-27T20:13:01.260Z,10.60
2017-10-27T20:15:29.511Z,10.70
2017-10-27T20:17:56.996Z,10.60
2017-10-27T20:20:25.224Z,10.60
2017-10-27T20:22:52.703Z,10.60
2017-10-27T20:25:20.154Z,10.60
2017-10-27T20:27:47.631Z,10.60
2017-10-27T20:30:15.108Z,10.50
2017-10-27T20:32:43.352Z,10.40
2017-10-27T20:35:10.822Z,10.30
2017-10-27T20:37:38.290Z,10.30
2017-10-27T20:40:06.539Z,10.30
2017-10-27T20:42:34.014Z,10.30
2017-10-27T20:45:02.253Z,10.10
2017-10-27T20:47:29.745Z,10.10
2017-10-27T20:49:57.980Z,10.00
2017-10-27T20:52:25.460Z,9.90
2017-10-27T20:54:53.791Z,9.90
2017-10-27T20:57:21.277Z,9.80
2017-10-27T20:59:48.731Z,9.80
2017-10-27T21:02:16.207Z,9.80
2017-10-27T21:04:43.685Z,9.80
2017-10-27T21:07:11.919Z,9.80
2017-10-27T21:09:39.392Z,9.80
2017-10-27T21:12:08.376Z,9.70
2017-10-27T21:14:35.825Z,9.70
2017-10-27T21:17:03.324Z,9.70
2017-10-27T21:19:31.539Z,9.80
2017-10-27T21:21:59.024Z,9.70
2017-10-27T21:24:26.479Z,9.80
2017-10-27T21:26:53.942Z,9.90
2017-10-27T21:29:21.420Z,9.90
2017-10-27T21:31:49.648Z,9.90
2017-10-27T21:34:17.122Z,9.90
2017-10-27T21:36:44.577Z,9.90
2017-10-27T21:39:12.060Z,9.90
2017-10-27T21:41:40.303Z,9.90
2017-10-27T21:44:07.755Z,9.90
2017-10-27T21:46:35.233Z,9.90
2017-10-27T21:49:02.712Z,10.00
2017-10-27T21:51:30.951Z,10.00
2017-10-27T21:53:58.415Z,10.00
2017-10-27T21:56:25.904Z,10.00
2017-10-27T21:58:54.139Z,10.10
2017-10-27T22:01:21.615Z,10.00
2017-10-27T22:03:49.119Z,10.00
2017-10-27T22:06:16.605Z,10.00
2017-10-27T22:08:44.055Z,10.00
2017-10-27T22:11:11.531Z,10.10
2017-10-27T22:13:39.015Z,10.10
2017-10-27T22:16:07.264Z,10.10
2017-10-27T22:18:34.730Z,10.10
2017-10-27T22:21:02.187Z,10.10
2017-10-27T22:23:29.664Z,10.10
2017-10-27T22:25:57.911Z,10.00
2017-10-27T22:28:25.387Z,10.00
2017-10-27T22:30:53.624Z,10.00
2017-10-27T22:33:21.112Z,10.00
2017-10-27T22:35:49.336Z,9.90
2017-10-27T22:38:16.812Z,9.90
2017-10-27T22:40:44.279Z,9.90
2017-10-27T22:43:11.740Z,9.80
2017-10-27T22:45:39.204Z,9.90
2017-10-27T22:48:06.672Z,9.80
2017-10-27T22:50:34.921Z,9.80
2017-10-27T22:53:02.379Z,9.80
2017-10-27T22:55:29.836Z,9.80
2017-10-27T22:57:57.309Z,9.90
2017-10-27T23:00:24.785Z,9.90
2017-10-27T23:02:53.018Z,10.00
2017-10-27T23:05:20.488Z,10.00
2017-10-27T23:07:54.349Z,10.00
2017-10-27T23:10:23.615Z,10.00
2017-10-27T23:12:51.831Z,9.90
2017-10-27T23:15:19.319Z,9.90
2017-10-27T23:17:46.811Z,9.90
2017-10-27T23:20:14.290Z,9.90
2017-10-27T23:22:41.750Z,9.90
2017-10-27T23:25:09.208Z,9.90
2017-10-27T23:27:36.703Z,9.90
2017-10-27T23:30:04.176Z,9.90
2017-10-27T23:32:32.415Z,9.90
2017-10-27T23:34:59.876Z,9.90
2017-10-27T23:37:27.357Z,9.90
2017-10-27T23:39:54.812Z,9.90
2017-10-27T23:42:22.316Z,9.90
2017-10-27T23:44:50.136Z,9.90
2017-10-27T23:47:17.583Z,9.90
2017-10-27T23:49:45.047Z,10.00
2017-10-27T23:52:12.531Z,9.90
2017-10-27T23:54:40.759Z,9.90
2017-10-27T23:57:08.235Z,9.90
2017-10-27T23:59:35.712Z,9.90
